Terminal Aerodrome Forecast
Issued by NWS

Home | Current Version | Previous Version | Text Only | Print | Product List | Glossary On
Versions: 1 2 3 4 5 6 7 8 9 10 11 12 13 14 15 16 17
000
FTUS42 TJSJ 262300
TAFKPK
TAF
TKPK 262331Z 2700/2724 04015KT P6SM SCT018
     FM271500 08010KT P6SM SCT020
     FM272100 10006KT P6SM SCT018
      AMD NOT SKED 2702/2711=

USA.gov is the U.S. government's official web portal to all federal, state and local government web resources and services.